Terminal Aerodrome Forecast
Issued by NWS

Home | Current Version | Previous Version | Text Only | Print | Product List | Glossary On
Versions: 1 2 3 4 5 6 7 8 9 10 11 12 13 14 15 16 17 18 19 20 21 22 23 24 25 26 27 28
000
FTUS44 KEWX 201500 AAA
TAFSSF
TAF AMD
KSSF 201528Z 2015/2112 12006KT P6SM OVC015
     FM201800 14012KT P6SM BKN025
     FM202200 14010KT P6SM SCT025
     FM210400 14007KT P6SM BKN015
     FM210900 13005KT 5SM BR OVC005=

USA.gov is the U.S. government's official web portal to all federal, state and local government web resources and services.